sensor_id;sensor_type;location;lat;lon;timestamp;temperature;humidity
46458;DHT22;32155;54.076;12.092;2024-02-14T00:01:31;4.80;99.90
46458;DHT22;32155;54.076;12.092;2024-02-14T00:03:56;4.80;99.90
46458;DHT22;32155;54.076;12.092;2024-02-14T00:06:22;4.80;99.90
46458;DHT22;32155;54.076;12.092;2024-02-14T00:08:49;4.80;99.90
46458;DHT22;32155;54.076;12.092;2024-02-14T00:11:14;4.70;99.90
46458;DHT22;32155;54.076;12.092;2024-02-14T00:13:40;4.70;99.90
46458;DHT22;32155;54.076;12.092;2024-02-14T00:16:05;4.60;99.90
46458;DHT22;32155;54.076;12.092;2024-02-14T00:18:33;4.50;99.90
46458;DHT22;32155;54.076;12.092;2024-02-14T00:20:59;4.50;99.90
46458;DHT22;32155;54.076;12.092;2024-02-14T00:23:24;4.50;99.90
46458;DHT22;32155;54.076;12.092;2024-02-14T00:25:50;4.50;99.90
46458;DHT22;32155;54.076;12.092;2024-02-14T00:28:15;4.50;99.90
46458;DHT22;32155;54.076;12.092;2024-02-14T00:30:41;4.50;99.90
46458;DHT22;32155;54.076;12.092;2024-02-14T00:33:06;4.50;99.90
46458;DHT22;32155;54.076;12.092;2024-02-14T00:35:32;4.50;99.90
46458;DHT22;32155;54.076;12.092;2024-02-14T00:38:00;4.50;99.90
46458;DHT22;32155;54.076;12.092;2024-02-14T00:40:25;4.50;99.90
46458;DHT22;32155;54.076;12.092;2024-02-14T00:42:51;4.50;99.90
46458;DHT22;32155;54.076;12.092;2024-02-14T00:45:16;4.50;99.90
46458;DHT22;32155;54.076;12.092;2024-02-14T00:47:42;4.50;99.90
46458;DHT22;32155;54.076;12.092;2024-02-14T00:50:07;4.50;99.90
46458;DHT22;32155;54.076;12.092;2024-02-14T00:52:33;4.60;99.90
46458;DHT22;32155;54.076;12.092;2024-02-14T00:54:58;4.50;99.90
46458;DHT22;32155;54.076;12.092;2024-02-14T00:57:24;4.60;99.90
46458;DHT22;32155;54.076;12.092;2024-02-14T00:59:51;4.60;99.90
46458;DHT22;32155;54.076;12.092;2024-02-14T01:02:17;4.60;99.90
46458;DHT22;32155;54.076;12.092;2024-02-14T01:04:43;4.60;99.90
46458;DHT22;32155;54.076;12.092;2024-02-14T01:07:09;4.60;99.90
46458;DHT22;32155;54.076;12.092;2024-02-14T01:09:34;4.60;99.90
46458;DHT22;32155;54.076;12.092;2024-02-14T01:12:01;4.60;99.90
46458;DHT22;32155;54.076;12.092;2024-02-14T01:14:27;4.60;99.90
46458;DHT22;32155;54.076;12.092;2024-02-14T01:16:55;4.60;99.90
46458;DHT22;32155;54.076;12.092;2024-02-14T01:19:21;4.70;99.90
46458;DHT22;32155;54.076;12.092;2024-02-14T01:21:49;4.70;99.90
46458;DHT22;32155;54.076;12.092;2024-02-14T01:24:17;4.70;99.90
46458;DHT22;32155;54.076;12.092;2024-02-14T01:26:42;4.70;99.90
46458;DHT22;32155;54.076;12.092;2024-02-14T01:29:08;4.70;99.90
46458;DHT22;32155;54.076;12.092;2024-02-14T01:31:35;4.70;99.90
46458;DHT22;32155;54.076;12.092;2024-02-14T01:34:01;4.70;99.90
46458;DHT22;32155;54.076;12.092;2024-02-14T01:36:29;4.70;99.90
46458;DHT22;32155;54.076;12.092;2024-02-14T01:38:54;4.70;99.90
46458;DHT22;32155;54.076;12.092;2024-02-14T01:41:20;4.70;99.90
46458;DHT22;32155;54.076;12.092;2024-02-14T01:43:46;4.70;99.90
46458;DHT22;32155;54.076;12.092;2024-02-14T01:46:12;4.70;99.90
46458;DHT22;32155;54.076;12.092;2024-02-14T01:48:41;4.60;99.90
46458;DHT22;32155;54.076;12.092;2024-02-14T01:51:07;4.60;99.90
46458;DHT22;32155;54.076;12.092;2024-02-14T01:53:33;4.60;99.90
46458;DHT22;32155;54.076;12.092;2024-02-14T01:56:00;4.50;99.90
46458;DHT22;32155;54.076;12.092;2024-02-14T01:58:29;4.50;99.90
46458;DHT22;32155;54.076;12.092;2024-02-14T02:00:55;4.50;99.90
46458;DHT22;32155;54.076;12.092;2024-02-14T02:03:24;4.50;99.90
46458;DHT22;32155;54.076;12.092;2024-02-14T02:05:51;4.50;99.90
46458;DHT22;32155;54.076;12.092;2024-02-14T02:08:19;4.50;99.90
46458;DHT22;32155;54.076;12.092;2024-02-14T02:10:45;4.50;99.90
46458;DHT22;32155;54.076;12.092;2024-02-14T02:13:10;4.50;99.90
46458;DHT22;32155;54.076;12.092;2024-02-14T02:15:36;4.40;99.90
46458;DHT22;32155;54.076;12.092;2024-02-14T02:18:03;4.40;99.90
46458;DHT22;32155;54.076;12.092;2024-02-14T02:20:34;4.40;99.90
46458;DHT22;32155;54.076;12.092;2024-02-14T02:22:59;4.30;99.90
46458;DHT22;32155;54.076;12.092;2024-02-14T02:25:25;4.40;99.90
46458;DHT22;32155;54.076;12.092;2024-02-14T02:27:52;4.30;99.90
46458;DHT22;32155;54.076;12.092;2024-02-14T02:30:20;4.30;99.90
46458;DHT22;32155;54.076;12.092;2024-02-14T02:32:45;4.30;99.90
46458;DHT22;32155;54.076;12.092;2024-02-14T02:35:13;4.30;99.90
46458;DHT22;32155;54.076;12.092;2024-02-14T02:37:39;4.30;99.90
46458;DHT22;32155;54.076;12.092;2024-02-14T02:40:08;4.30;99.90
46458;DHT22;32155;54.076;12.092;2024-02-14T02:42:35;4.30;99.90
46458;DHT22;32155;54.076;12.092;2024-02-14T02:45:03;4.30;99.90
46458;DHT22;32155;54.076;12.092;2024-02-14T02:47:34;4.30;99.90
46458;DHT22;32155;54.076;12.092;2024-02-14T02:50:02;4.40;99.90
46458;DHT22;32155;54.076;12.092;2024-02-14T02:52:29;4.40;99.90
46458;DHT22;32155;54.076;12.092;2024-02-14T02:54:56;4.40;99.90
46458;DHT22;32155;54.076;12.092;2024-02-14T02:57:21;4.30;99.90
46458;DHT22;32155;54.076;12.092;2024-02-14T02:59:47;4.40;99.90
46458;DHT22;32155;54.076;12.092;2024-02-14T03:02:16;4.40;99.90
46458;DHT22;32155;54.076;12.092;2024-02-14T03:04:42;4.40;99.90
46458;DHT22;32155;54.076;12.092;2024-02-14T03:07:08;4.30;99.90
46458;DHT22;32155;54.076;12.092;2024-02-14T03:09:34;4.30;99.90
46458;DHT22;32155;54.076;12.092;2024-02-14T03:11:59;4.30;99.90
46458;DHT22;32155;54.076;12.092;2024-02-14T03:14:28;4.30;99.90
46458;DHT22;32155;54.076;12.092;2024-02-14T03:16:53;4.30;99.90
46458;DHT22;32155;54.076;12.092;2024-02-14T03:19:21;4.20;99.90
46458;DHT22;32155;54.076;12.092;2024-02-14T03:21:47;4.20;99.90
46458;DHT22;32155;54.076;12.092;2024-02-14T03:24:13;4.20;99.90
46458;DHT22;32155;54.076;12.092;2024-02-14T03:26:38;4.20;99.90
46458;DHT22;32155;54.076;12.092;2024-02-14T03:29:07;4.20;99.90
46458;DHT22;32155;54.076;12.092;2024-02-14T03:31:33;4.20;99.90
46458;DHT22;32155;54.076;12.092;2024-02-14T03:33:59;4.30;99.90
46458;DHT22;32155;54.076;12.092;2024-02-14T03:36:25;4.30;99.90
46458;DHT22;32155;54.076;12.092;2024-02-14T03:38:53;4.30;99.90
46458;DHT22;32155;54.076;12.092;2024-02-14T03:41:19;4.30;99.90
46458;DHT22;32155;54.076;12.092;2024-02-14T03:43:44;4.30;99.90
46458;DHT22;32155;54.076;12.092;2024-02-14T03:46:10;4.30;99.90
46458;DHT22;32155;54.076;12.092;2024-02-14T03:48:38;4.30;99.90
46458;DHT22;32155;54.076;12.092;2024-02-14T03:51:03;4.30;99.90
46458;DHT22;32155;54.076;12.092;2024-02-14T03:53:31;4.40;99.90
46458;DHT22;32155;54.076;12.092;2024-02-14T03:55:58;4.30;99.90
46458;DHT22;32155;54.076;12.092;2024-02-14T03:58:24;4.40;99.90
46458;DHT22;32155;54.076;12.092;2024-02-14T04:00:52;4.40;99.90
46458;DHT22;32155;54.076;12.092;2024-02-14T04:03:17;4.40;99.90
46458;DHT22;32155;54.076;12.092;2024-02-14T04:05:43;4.30;99.90
46458;DHT22;32155;54.076;12.092;2024-02-14T04:08:10;4.40;99.90
46458;DHT22;32155;54.076;12.092;2024-02-14T04:10:36;4.40;99.90
46458;DHT22;32155;54.076;12.092;2024-02-14T04:13:05;4.40;99.90
46458;DHT22;32155;54.076;12.092;2024-02-14T04:15:31;4.50;99.90
46458;DHT22;32155;54.076;12.092;2024-02-14T04:17:56;4.40;99.90
46458;DHT22;32155;54.076;12.092;2024-02-14T04:20:22;4.50;99.90
46458;DHT22;32155;54.076;12.092;2024-02-14T04:22:47;4.50;99.90
46458;DHT22;32155;54.076;12.092;2024-02-14T04:25:13;4.50;99.90
46458;DHT22;32155;54.076;12.092;2024-02-14T04:27:38;4.50;99.90
46458;DHT22;32155;54.076;12.092;2024-02-14T04:30:04;4.50;99.90
46458;DHT22;32155;54.076;12.092;2024-02-14T04:32:30;4.50;99.90
46458;DHT22;32155;54.076;12.092;2024-02-14T04:34:55;4.50;99.90
46458;DHT22;32155;54.076;12.092;2024-02-14T04:37:21;4.50;99.90
46458;DHT22;32155;54.076;12.092;2024-02-14T04:39:47;4.50;99.90
46458;DHT22;32155;54.076;12.092;2024-02-14T04:42:17;4.50;99.90
46458;DHT22;32155;54.076;12.092;2024-02-14T04:44:43;4.50;99.90
46458;DHT22;32155;54.076;12.092;2024-02-14T04:47:09;4.50;99.90
46458;DHT22;32155;54.076;12.092;2024-02-14T04:49:40;4.50;99.90
46458;DHT22;32155;54.076;12.092;2024-02-14T04:52:05;4.40;99.90
46458;DHT22;32155;54.076;12.092;2024-02-14T04:54:32;4.40;99.90
46458;DHT22;32155;54.076;12.092;2024-02-14T04:57:00;4.40;99.90
46458;DHT22;32155;54.076;12.092;2024-02-14T04:59:26;4.30;99.90
46458;DHT22;32155;54.076;12.092;2024-02-14T05:01:51;4.30;99.90
46458;DHT22;32155;54.076;12.092;2024-02-14T05:04:18;4.30;99.90
46458;DHT22;32155;54.076;12.092;2024-02-14T05:06:44;4.30;99.90
46458;DHT22;32155;54.076;12.092;2024-02-14T05:09:10;4.30;99.90
46458;DHT22;32155;54.076;12.092;2024-02-14T05:11:36;4.30;99.90
46458;DHT22;32155;54.076;12.092;2024-02-14T05:14:01;4.30;99.90
46458;DHT22;32155;54.076;12.092;2024-02-14T05:16:27;4.30;99.90
46458;DHT22;32155;54.076;12.092;2024-02-14T05:18:53;4.30;99.90
46458;DHT22;32155;54.076;12.092;2024-02-14T05:21:21;4.30;99.90
46458;DHT22;32155;54.076;12.092;2024-02-14T05:23:47;4.20;99.90
46458;DHT22;32155;54.076;12.092;2024-02-14T05:26:13;4.20;99.90
46458;DHT22;32155;54.076;12.092;2024-02-14T05:28:38;4.20;99.90
46458;DHT22;32155;54.076;12.092;2024-02-14T05:31:04;4.20;99.90
46458;DHT22;32155;54.076;12.092;2024-02-14T05:33:32;4.20;99.90
46458;DHT22;32155;54.076;12.092;2024-02-14T05:35:58;4.20;99.90
46458;DHT22;32155;54.076;12.092;2024-02-14T05:38:24;4.20;99.90
46458;DHT22;32155;54.076;12.092;2024-02-14T05:40:49;4.20;99.90
46458;DHT22;32155;54.076;12.092;2024-02-14T05:43:15;4.10;99.90
46458;DHT22;32155;54.076;12.092;2024-02-14T05:45:41;4.20;99.90
46458;DHT22;32155;54.076;12.092;2024-02-14T05:48:07;4.20;99.90
46458;DHT22;32155;54.076;12.092;2024-02-14T05:50:33;4.20;99.90
46458;DHT22;32155;54.076;12.092;2024-02-14T05:53:01;4.20;99.90
46458;DHT22;32155;54.076;12.092;2024-02-14T05:55:29;4.30;99.90
46458;DHT22;32155;54.076;12.092;2024-02-14T05:57:54;4.20;99.90
46458;DHT22;32155;54.076;12.092;2024-02-14T06:00:20;4.20;99.90
46458;DHT22;32155;54.076;12.092;2024-02-14T06:02:46;4.20;99.90
46458;DHT22;32155;54.076;12.092;2024-02-14T06:05:12;4.30;99.90
46458;DHT22;32155;54.076;12.092;2024-02-14T06:07:38;4.40;99.90
46458;DHT22;32155;54.076;12.092;2024-02-14T06:10:03;4.40;99.90
46458;DHT22;32155;54.076;12.092;2024-02-14T06:12:31;4.30;99.90
46458;DHT22;32155;54.076;12.092;2024-02-14T06:14:57;4.30;99.90
46458;DHT22;32155;54.076;12.092;2024-02-14T06:17:22;4.30;99.90
46458;DHT22;32155;54.076;12.092;2024-02-14T06:19:48;4.30;99.90
46458;DHT22;32155;54.076;12.092;2024-02-14T06:22:13;4.30;99.90
46458;DHT22;32155;54.076;12.092;2024-02-14T06:24:39;4.20;99.90
46458;DHT22;32155;54.076;12.092;2024-02-14T06:27:06;4.20;99.90
46458;DHT22;32155;54.076;12.092;2024-02-14T06:29:32;4.30;99.90
46458;DHT22;32155;54.076;12.092;2024-02-14T06:31:57;4.20;99.90
46458;DHT22;32155;54.076;12.092;2024-02-14T06:34:25;4.20;99.90
46458;DHT22;32155;54.076;12.092;2024-02-14T06:36:53;4.30;99.90
46458;DHT22;32155;54.076;12.092;2024-02-14T06:39:24;4.20;99.90
46458;DHT22;32155;54.076;12.092;2024-02-14T06:41:49;4.20;99.90
46458;DHT22;32155;54.076;12.092;2024-02-14T06:44:15;4.30;99.90
46458;DHT22;32155;54.076;12.092;2024-02-14T06:46:41;4.30;99.90
46458;DHT22;32155;54.076;12.092;2024-02-14T06:49:07;4.20;99.90
46458;DHT22;32155;54.076;12.092;2024-02-14T06:51:33;4.30;99.90
46458;DHT22;32155;54.076;12.092;2024-02-14T06:53:58;4.20;99.90
46458;DHT22;32155;54.076;12.092;2024-02-14T06:56:26;4.30;99.90
46458;DHT22;32155;54.076;12.092;2024-02-14T06:58:52;4.30;99.90
46458;DHT22;32155;54.076;12.092;2024-02-14T07:01:25;4.30;99.90
46458;DHT22;32155;54.076;12.092;2024-02-14T07:03:51;4.30;99.90
46458;DHT22;32155;54.076;12.092;2024-02-14T07:06:17;4.30;99.90
46458;DHT22;32155;54.076;12.092;2024-02-14T07:08:46;4.30;99.90
46458;DHT22;32155;54.076;12.092;2024-02-14T07:11:20;4.40;99.90
46458;DHT22;32155;54.076;12.092;2024-02-14T07:13:46;4.40;99.90
46458;DHT22;32155;54.076;12.092;2024-02-14T07:16:14;4.40;99.90
46458;DHT22;32155;54.076;12.092;2024-02-14T07:18:40;4.50;99.90
46458;DHT22;32155;54.076;12.092;2024-02-14T07:21:06;4.50;99.90
46458;DHT22;32155;54.076;12.092;2024-02-14T07:23:35;4.50;99.90
46458;DHT22;32155;54.076;12.092;2024-02-14T07:26:00;4.50;99.90
46458;DHT22;32155;54.076;12.092;2024-02-14T07:28:27;4.50;99.90
46458;DHT22;32155;54.076;12.092;2024-02-14T07:30:52;4.50;99.90
46458;DHT22;32155;54.076;12.092;2024-02-14T07:33:18;4.60;99.90
46458;DHT22;32155;54.076;12.092;2024-02-14T07:35:44;4.70;99.90
46458;DHT22;32155;54.076;12.092;2024-02-14T07:38:09;4.70;99.90
46458;DHT22;32155;54.076;12.092;2024-02-14T07:40:35;4.60;99.90
46458;DHT22;32155;54.076;12.092;2024-02-14T07:43:01;4.60;99.90
46458;DHT22;32155;54.076;12.092;2024-02-14T07:45:31;4.70;99.90
46458;DHT22;32155;54.076;12.092;2024-02-14T07:47:57;4.70;99.90
46458;DHT22;32155;54.076;12.092;2024-02-14T07:50:22;4.70;99.90
46458;DHT22;32155;54.076;12.092;2024-02-14T07:52:48;4.70;99.90
46458;DHT22;32155;54.076;12.092;2024-02-14T07:55:14;4.70;99.90
46458;DHT22;32155;54.076;12.092;2024-02-14T07:57:40;4.80;99.90
46458;DHT22;32155;54.076;12.092;2024-02-14T08:00:06;4.80;99.90
46458;DHT22;32155;54.076;12.092;2024-02-14T08:02:36;4.90;99.90
46458;DHT22;32155;54.076;12.092;2024-02-14T08:05:02;5.10;99.90
46458;DHT22;32155;54.076;12.092;2024-02-14T08:07:30;5.00;99.90
46458;DHT22;32155;54.076;12.092;2024-02-14T08:09:56;5.10;99.90
46458;DHT22;32155;54.076;12.092;2024-02-14T08:12:21;5.20;99.90
46458;DHT22;32155;54.076;12.092;2024-02-14T08:14:48;5.20;99.90
46458;DHT22;32155;54.076;12.092;2024-02-14T08:17:13;5.30;99.90
46458;DHT22;32155;54.076;12.092;2024-02-14T08:19:39;5.30;99.90
46458;DHT22;32155;54.076;12.092;2024-02-14T08:22:05;5.40;99.90
46458;DHT22;32155;54.076;12.092;2024-02-14T08:24:31;5.30;99.90
46458;DHT22;32155;54.076;12.092;2024-02-14T08:26:56;5.40;99.90
46458;DHT22;32155;54.076;12.092;2024-02-14T08:29:22;5.40;99.90
46458;DHT22;32155;54.076;12.092;2024-02-14T08:31:49;5.40;99.90
46458;DHT22;32155;54.076;12.092;2024-02-14T08:34:14;5.40;99.90
46458;DHT22;32155;54.076;12.092;2024-02-14T08:36:41;5.50;99.90
46458;DHT22;32155;54.076;12.092;2024-02-14T08:39:07;5.50;99.90
46458;DHT22;32155;54.076;12.092;2024-02-14T08:41:33;5.60;99.90
46458;DHT22;32155;54.076;12.092;2024-02-14T08:43:59;5.60;99.90
46458;DHT22;32155;54.076;12.092;2024-02-14T08:46:29;5.60;99.90
46458;DHT22;32155;54.076;12.092;2024-02-14T08:48:55;5.50;99.90
46458;DHT22;32155;54.076;12.092;2024-02-14T08:51:20;5.70;99.90
46458;DHT22;32155;54.076;12.092;2024-02-14T08:53:46;5.90;99.90
46458;DHT22;32155;54.076;12.092;2024-02-14T08:56:12;6.00;99.90
46458;DHT22;32155;54.076;12.092;2024-02-14T08:58:38;5.80;99.90
46458;DHT22;32155;54.076;12.092;2024-02-14T09:01:04;5.70;99.90
46458;DHT22;32155;54.076;12.092;2024-02-14T09:03:29;5.70;99.90
46458;DHT22;32155;54.076;12.092;2024-02-14T09:05:58;5.60;99.90
46458;DHT22;32155;54.076;12.092;2024-02-14T09:08:23;5.50;99.90
46458;DHT22;32155;54.076;12.092;2024-02-14T09:10:55;5.60;99.90
46458;DHT22;32155;54.076;12.092;2024-02-14T09:13:21;5.60;99.90
46458;DHT22;32155;54.076;12.092;2024-02-14T09:15:50;5.40;99.90
46458;DHT22;32155;54.076;12.092;2024-02-14T09:18:16;5.20;99.90
46458;DHT22;32155;54.076;12.092;2024-02-14T09:20:44;5.10;99.90
46458;DHT22;32155;54.076;12.092;2024-02-14T09:23:14;5.10;99.90
46458;DHT22;32155;54.076;12.092;2024-02-14T09:25:44;5.10;99.90
46458;DHT22;32155;54.076;12.092;2024-02-14T09:31:35;5.20;99.90
46458;DHT22;32155;54.076;12.092;2024-02-14T09:34:04;5.10;99.90
46458;DHT22;32155;54.076;12.092;2024-02-14T09:36:45;5.10;99.90
46458;DHT22;32155;54.076;12.092;2024-02-14T09:39:17;5.10;99.90
46458;DHT22;32155;54.076;12.092;2024-02-14T09:41:47;5.10;99.90
46458;DHT22;32155;54.076;12.092;2024-02-14T09:44:35;5.10;99.90
46458;DHT22;32155;54.076;12.092;2024-02-14T09:50:12;5.10;99.90
46458;DHT22;32155;54.076;12.092;2024-02-14T09:52:38;5.10;99.90
46458;DHT22;32155;54.076;12.092;2024-02-14T09:55:12;5.10;99.90
46458;DHT22;32155;54.076;12.092;2024-02-14T09:57:38;5.10;99.90
46458;DHT22;32155;54.076;12.092;2024-02-14T10:00:06;5.10;99.90
46458;DHT22;32155;54.076;12.092;2024-02-14T10:02:35;5.20;99.90
46458;DHT22;32155;54.076;12.092;2024-02-14T10:05:01;5.20;99.90
46458;DHT22;32155;54.076;12.092;2024-02-14T10:07:27;5.20;99.90
46458;DHT22;32155;54.076;12.092;2024-02-14T10:09:52;5.20;99.90
46458;DHT22;32155;54.076;12.092;2024-02-14T10:12:19;5.20;99.90
46458;DHT22;32155;54.076;12.092;2024-02-14T10:14:45;5.30;99.90
46458;DHT22;32155;54.076;12.092;2024-02-14T10:17:18;5.40;99.90
46458;DHT22;32155;54.076;12.092;2024-02-14T10:19:43;5.50;99.90
46458;DHT22;32155;54.076;12.092;2024-02-14T10:22:19;5.40;99.90
46458;DHT22;32155;54.076;12.092;2024-02-14T10:24:45;5.20;99.90
46458;DHT22;32155;54.076;12.092;2024-02-14T10:27:11;5.20;99.90
46458;DHT22;32155;54.076;12.092;2024-02-14T10:29:40;5.20;99.90
46458;DHT22;32155;54.076;12.092;2024-02-14T10:32:09;5.30;99.90
46458;DHT22;32155;54.076;12.092;2024-02-14T10:34:35;5.30;99.90
46458;DHT22;32155;54.076;12.092;2024-02-14T10:37:03;5.40;99.90
46458;DHT22;32155;54.076;12.092;2024-02-14T10:39:32;5.40;99.90
46458;DHT22;32155;54.076;12.092;2024-02-14T10:42:04;5.50;99.90
46458;DHT22;32155;54.076;12.092;2024-02-14T10:44:30;5.50;99.90
46458;DHT22;32155;54.076;12.092;2024-02-14T10:49:54;5.60;99.90
46458;DHT22;32155;54.076;12.092;2024-02-14T10:52:35;5.70;99.90
46458;DHT22;32155;54.076;12.092;2024-02-14T10:55:02;5.80;99.90
46458;DHT22;32155;54.076;12.092;2024-02-14T10:57:31;5.70;99.90
46458;DHT22;32155;54.076;12.092;2024-02-14T11:00:09;5.70;99.90
46458;DHT22;32155;54.076;12.092;2024-02-14T11:02:36;5.80;99.90
46458;DHT22;32155;54.076;12.092;2024-02-14T11:10:58;5.90;99.90
46458;DHT22;32155;54.076;12.092;2024-02-14T11:13:30;6.10;99.90
46458;DHT22;32155;54.076;12.092;2024-02-14T11:16:00;6.10;99.90
46458;DHT22;32155;54.076;12.092;2024-02-14T11:18:36;6.10;99.90
46458;DHT22;32155;54.076;12.092;2024-02-14T11:21:15;6.30;99.90
46458;DHT22;32155;54.076;12.092;2024-02-14T11:23:53;6.40;99.90
46458;DHT22;32155;54.076;12.092;2024-02-14T11:26:22;6.30;99.90
46458;DHT22;32155;54.076;12.092;2024-02-14T11:28:58;6.30;99.90
46458;DHT22;32155;54.076;12.092;2024-02-14T11:31:32;6.20;99.90
46458;DHT22;32155;54.076;12.092;2024-02-14T11:34:02;6.20;99.90
46458;DHT22;32155;54.076;12.092;2024-02-14T11:36:29;6.10;99.90
46458;DHT22;32155;54.076;12.092;2024-02-14T11:38:57;6.20;99.90
46458;DHT22;32155;54.076;12.092;2024-02-14T11:41:43;6.20;99.90
46458;DHT22;32155;54.076;12.092;2024-02-14T11:44:14;6.20;99.90
46458;DHT22;32155;54.076;12.092;2024-02-14T11:46:47;6.20;99.90
46458;DHT22;32155;54.076;12.092;2024-02-14T11:49:15;6.30;99.90
46458;DHT22;32155;54.076;12.092;2024-02-14T11:51:42;6.30;99.90
46458;DHT22;32155;54.076;12.092;2024-02-14T11:54:08;6.20;99.90
46458;DHT22;32155;54.076;12.092;2024-02-14T11:56:37;6.30;99.90
46458;DHT22;32155;54.076;12.092;2024-02-14T11:59:07;6.30;99.90
46458;DHT22;32155;54.076;12.092;2024-02-14T12:01:38;6.30;99.90
46458;DHT22;32155;54.076;12.092;2024-02-14T12:04:05;6.30;99.90
46458;DHT22;32155;54.076;12.092;2024-02-14T12:06:34;6.40;99.90
46458;DHT22;32155;54.076;12.092;2024-02-14T12:18:36;6.50;99.90
46458;DHT22;32155;54.076;12.092;2024-02-14T12:21:08;6.50;99.90
46458;DHT22;32155;54.076;12.092;2024-02-14T12:23:37;6.50;99.90
46458;DHT22;32155;54.076;12.092;2024-02-14T12:26:03;6.60;99.90
46458;DHT22;32155;54.076;12.092;2024-02-14T12:28:32;6.60;99.90
46458;DHT22;32155;54.076;12.092;2024-02-14T12:30:58;6.60;99.90
46458;DHT22;32155;54.076;12.092;2024-02-14T12:33:27;6.70;99.90
46458;DHT22;32155;54.076;12.092;2024-02-14T12:35:53;6.70;99.90
46458;DHT22;32155;54.076;12.092;2024-02-14T12:38:19;6.90;99.90
46458;DHT22;32155;54.076;12.092;2024-02-14T12:40:46;6.90;99.90
46458;DHT22;32155;54.076;12.092;2024-02-14T12:43:12;6.90;99.90
46458;DHT22;32155;54.076;12.092;2024-02-14T12:45:38;6.90;99.90
46458;DHT22;32155;54.076;12.092;2024-02-14T12:48:04;6.90;99.90
46458;DHT22;32155;54.076;12.092;2024-02-14T12:50:30;6.90;99.90
46458;DHT22;32155;54.076;12.092;2024-02-14T12:52:58;6.90;99.90
46458;DHT22;32155;54.076;12.092;2024-02-14T12:55:27;6.90;99.90
46458;DHT22;32155;54.076;12.092;2024-02-14T12:57:54;6.90;99.90
46458;DHT22;32155;54.076;12.092;2024-02-14T13:00:20;7.00;99.90
46458;DHT22;32155;54.076;12.092;2024-02-14T13:02:47;7.00;99.90
46458;DHT22;32155;54.076;12.092;2024-02-14T13:05:16;7.00;99.90
46458;DHT22;32155;54.076;12.092;2024-02-14T13:07:42;7.00;99.90
46458;DHT22;32155;54.076;12.092;2024-02-14T13:10:08;7.00;99.90
46458;DHT22;32155;54.076;12.092;2024-02-14T13:12:39;7.00;99.90
46458;DHT22;32155;54.076;12.092;2024-02-14T13:15:05;7.00;99.90
46458;DHT22;32155;54.076;12.092;2024-02-14T13:17:31;7.00;99.90
46458;DHT22;32155;54.076;12.092;2024-02-14T13:19:56;7.00;99.90
46458;DHT22;32155;54.076;12.092;2024-02-14T13:22:25;7.00;99.90
46458;DHT22;32155;54.076;12.092;2024-02-14T13:24:51;6.90;99.90
46458;DHT22;32155;54.076;12.092;2024-02-14T13:27:16;7.00;99.90
46458;DHT22;32155;54.076;12.092;2024-02-14T13:29:42;7.10;99.90
46458;DHT22;32155;54.076;12.092;2024-02-14T13:32:10;7.20;99.90
46458;DHT22;32155;54.076;12.092;2024-02-14T13:34:35;7.30;99.90
46458;DHT22;32155;54.076;12.092;2024-02-14T13:37:01;7.30;99.90
46458;DHT22;32155;54.076;12.092;2024-02-14T13:39:27;7.30;99.90
46458;DHT22;32155;54.076;12.092;2024-02-14T13:41:53;7.20;99.90
46458;DHT22;32155;54.076;12.092;2024-02-14T13:44:20;7.20;99.90
46458;DHT22;32155;54.076;12.092;2024-02-14T13:46:48;7.20;99.90
46458;DHT22;32155;54.076;12.092;2024-02-14T13:49:15;7.30;99.90
46458;DHT22;32155;54.076;12.092;2024-02-14T13:51:50;7.40;99.90
46458;DHT22;32155;54.076;12.092;2024-02-14T13:54:17;7.40;99.90
46458;DHT22;32155;54.076;12.092;2024-02-14T13:56:42;7.50;99.90
46458;DHT22;32155;54.076;12.092;2024-02-14T13:59:08;7.50;99.90
46458;DHT22;32155;54.076;12.092;2024-02-14T14:01:36;7.50;99.90
46458;DHT22;32155;54.076;12.092;2024-02-14T14:04:02;7.50;99.90
46458;DHT22;32155;54.076;12.092;2024-02-14T14:06:29;7.60;99.90
46458;DHT22;32155;54.076;12.092;2024-02-14T14:08:54;7.60;99.90
46458;DHT22;32155;54.076;12.092;2024-02-14T14:11:20;7.70;99.90
46458;DHT22;32155;54.076;12.092;2024-02-14T14:13:45;7.60;99.90
46458;DHT22;32155;54.076;12.092;2024-02-14T14:16:14;7.70;99.90
46458;DHT22;32155;54.076;12.092;2024-02-14T14:18:40;7.70;99.90
46458;DHT22;32155;54.076;12.092;2024-02-14T14:21:05;7.80;99.90
46458;DHT22;32155;54.076;12.092;2024-02-14T14:23:31;7.80;99.90
46458;DHT22;32155;54.076;12.092;2024-02-14T14:25:58;7.80;99.90
46458;DHT22;32155;54.076;12.092;2024-02-14T14:28:23;7.80;99.90
46458;DHT22;32155;54.076;12.092;2024-02-14T14:30:50;7.80;99.90
46458;DHT22;32155;54.076;12.092;2024-02-14T14:33:16;7.70;99.90
46458;DHT22;32155;54.076;12.092;2024-02-14T14:35:41;7.80;99.90
46458;DHT22;32155;54.076;12.092;2024-02-14T14:38:07;7.80;99.90
46458;DHT22;32155;54.076;12.092;2024-02-14T14:40:32;7.80;99.90
46458;DHT22;32155;54.076;12.092;2024-02-14T14:42:58;7.90;99.90
46458;DHT22;32155;54.076;12.092;2024-02-14T14:45:24;8.00;99.90
46458;DHT22;32155;54.076;12.092;2024-02-14T14:47:49;8.00;99.90
46458;DHT22;32155;54.076;12.092;2024-02-14T14:50:20;8.00;99.90
46458;DHT22;32155;54.076;12.092;2024-02-14T14:52:46;8.00;99.90
46458;DHT22;32155;54.076;12.092;2024-02-14T14:55:12;8.00;99.90
46458;DHT22;32155;54.076;12.092;2024-02-14T14:57:37;8.00;99.90
46458;DHT22;32155;54.076;12.092;2024-02-14T15:00:09;8.00;99.90
46458;DHT22;32155;54.076;12.092;2024-02-14T15:02:37;8.00;99.90
46458;DHT22;32155;54.076;12.092;2024-02-14T15:05:09;7.90;99.90
46458;DHT22;32155;54.076;12.092;2024-02-14T15:07:36;7.90;99.90
46458;DHT22;32155;54.076;12.092;2024-02-14T15:10:04;7.90;99.90
46458;DHT22;32155;54.076;12.092;2024-02-14T15:12:30;7.90;99.90
46458;DHT22;32155;54.076;12.092;2024-02-14T15:14:56;8.00;99.90
46458;DHT22;32155;54.076;12.092;2024-02-14T15:17:22;8.00;99.90
46458;DHT22;32155;54.076;12.092;2024-02-14T15:19:50;8.00;99.90
46458;DHT22;32155;54.076;12.092;2024-02-14T15:22:16;8.00;99.90
46458;DHT22;32155;54.076;12.092;2024-02-14T15:24:44;8.00;99.90
46458;DHT22;32155;54.076;12.092;2024-02-14T15:27:11;8.10;99.90
46458;DHT22;32155;54.076;12.092;2024-02-14T15:29:47;8.10;99.90
46458;DHT22;32155;54.076;12.092;2024-02-14T15:32:31;8.00;99.90
46458;DHT22;32155;54.076;12.092;2024-02-14T15:35:15;8.10;99.90
46458;DHT22;32155;54.076;12.092;2024-02-14T15:37:44;8.10;99.90
46458;DHT22;32155;54.076;12.092;2024-02-14T15:40:16;8.10;99.90
46458;DHT22;32155;54.076;12.092;2024-02-14T15:42:42;8.10;99.90
46458;DHT22;32155;54.076;12.092;2024-02-14T15:45:08;8.10;99.90
46458;DHT22;32155;54.076;12.092;2024-02-14T15:47:41;8.20;99.90
46458;DHT22;32155;54.076;12.092;2024-02-14T15:50:09;8.10;99.90
46458;DHT22;32155;54.076;12.092;2024-02-14T15:52:35;8.20;99.90
46458;DHT22;32155;54.076;12.092;2024-02-14T15:55:00;8.20;99.90